Time;durP1;ratioP1;P1;durP2;ratioP2;P2;SDS_P1;SDS_P2;PMS_P1;PMS_P2;Temp;Humidity;BMP_temperature;BMP_pressure;BME280_temperature;BME280_humidity;BME280_pressure;Samples;Min_cycle;Max_cycle;Signal;HPM_P1;HPM_P2
2022/06/04 00:02:04;;;;;;;0.00;0.00;;;22.60;94.50;;;;;;4934975;29;20245;-71
2022/06/04 00:04:30;;;;;;;0.00;0.00;;;22.50;94.50;;;;;;4926901;29;20048;-71
2022/06/04 00:06:56;;;;;;;0.00;0.00;;;22.50;94.80;;;;;;4926788;29;20314;-71
2022/06/04 00:09:31;;;;;;;0.00;0.00;;;22.40;94.70;;;;;;4927214;29;20094;-71
2022/06/04 00:17:25;;;;;;;0.00;0.00;;;22.40;95.10;;;;;;4933812;29;20083;-72
2022/06/04 00:19:51;;;;;;;0.00;0.00;;;22.40;95.10;;;;;;4919675;29;20019;-72
2022/06/04 00:22:17;;;;;;;0.00;0.00;;;22.40;95.10;;;;;;4919827;29;20112;-73
2022/06/04 00:24:44;;;;;;;0.00;0.00;;;22.30;95.30;;;;;;4926600;29;20087;-71
2022/06/04 00:27:17;;;;;;;0.00;0.00;;;22.30;95.20;;;;;;4927082;29;20024;-72
2022/06/04 00:29:44;;;;;;;0.00;0.00;;;22.30;95.60;;;;;;4905816;29;20027;-71
2022/06/04 00:32:10;;;;;;;0.00;0.00;;;22.20;95.50;;;;;;4913993;29;20034;-72
2022/06/04 00:34:35;;;;;;;0.00;0.00;;;22.20;95.60;;;;;;4925184;29;20035;-71
2022/06/04 00:37:01;;;;;;;0.00;0.00;;;22.20;95.60;;;;;;4917441;29;20031;-71
2022/06/04 00:39:27;;;;;;;0.00;0.00;;;22.20;95.80;;;;;;4917550;29;20027;-71
2022/06/04 00:41:57;;;;;;;0.00;0.00;;;22.20;95.90;;;;;;4920355;29;20023;-72
2022/06/04 00:44:31;;;;;;;0.00;0.00;;;22.20;96.10;;;;;;4921883;29;20222;-72
2022/06/04 00:47:06;;;;;;;0.00;0.00;;;22.10;96.10;;;;;;4935318;29;20043;-73
2022/06/04 00:49:32;;;;;;;0.00;0.00;;;22.10;96.30;;;;;;4909891;29;20031;-71
2022/06/04 00:51:58;;;;;;;0.00;0.00;;;22.10;96.30;;;;;;4922317;29;20024;-73
2022/06/04 00:54:24;;;;;;;0.00;0.00;;;22.10;96.40;;;;;;4931701;29;20054;-71
2022/06/04 00:56:59;;;;;;;0.00;0.00;;;22.10;96.40;;;;;;4921574;29;20214;-72
2022/06/04 00:59:30;;;;;;;0.00;0.00;;;22.10;96.30;;;;;;4930580;29;20034;-70
2022/06/04 01:02:02;;;;;;;0.00;0.00;;;22.10;96.20;;;;;;4917447;29;20019;-72
2022/06/04 01:04:47;;;;;;;0.00;0.00;;;22.10;96.20;;;;;;4920159;29;20059;-75
2022/06/04 01:07:25;;;;;;;0.00;0.00;;;22.10;96.30;;;;;;4909741;29;20028;-70
2022/06/04 01:10:09;;;;;;;;;;;22.10;96.40;;;;;;4909976;29;20047;-72
2022/06/04 01:12:53;;;;;;;0.00;0.00;;;22.00;96.40;;;;;;4922365;29;19970;-71
2022/06/04 01:15:29;;;;;;;0.00;0.00;;;22.00;96.50;;;;;;4934870;29;20043;-71
2022/06/04 01:18:10;;;;;;;0.00;0.00;;;22.00;96.60;;;;;;4904811;29;20047;-71
2022/06/04 01:20:39;;;;;;;0.00;0.00;;;21.90;96.60;;;;;;4917595;29;20032;-71
2022/06/04 01:23:11;;;;;;;0.00;0.00;;;21.90;96.90;;;;;;4913663;29;20227;-73
2022/06/04 01:26:04;;;;;;;0.00;0.00;;;21.80;97.00;;;;;;4904873;29;20036;-72
2022/06/04 01:28:34;;;;;;;0.00;0.00;;;21.80;97.20;;;;;;4902167;29;20091;-72
2022/06/04 01:31:05;;;;;;;0.00;0.00;;;21.80;97.30;;;;;;4909843;29;20017;-71
2022/06/04 01:33:38;;;;;;;0.00;0.00;;;21.80;97.30;;;;;;4928484;29;20023;-71
2022/06/04 01:36:06;;;;;;;0.00;0.00;;;21.80;97.40;;;;;;4925004;29;20098;-72
2022/06/04 01:38:39;;;;;;;0.00;0.00;;;21.90;97.30;;;;;;4928275;29;20024;-73
2022/06/04 01:41:11;;;;;;;0.00;0.00;;;21.70;97.30;;;;;;4912462;29;20600;-73
2022/06/04 01:43:59;;;;;;;0.00;0.00;;;21.70;97.50;;;;;;4907868;29;20530;-71
2022/06/04 01:46:38;;;;;;;0.00;0.00;;;21.70;97.60;;;;;;4903801;29;20077;-71
2022/06/04 01:49:41;;;;;;;0.00;0.00;;;21.60;97.80;;;;;;4923071;29;20027;-71
2022/06/04 01:52:15;;;;;;;0.00;0.00;;;21.70;97.90;;;;;;4909504;29;20107;-71
2022/06/04 01:54:59;;;;;;;0.00;0.00;;;21.60;97.90;;;;;;4935213;29;20456;-71
2022/06/04 01:57:36;;;;;;;0.00;0.00;;;21.60;97.90;;;;;;4929694;29;20024;-71
2022/06/04 02:00:10;;;;;;;0.00;0.00;;;21.60;97.90;;;;;;4932829;29;20020;-71
2022/06/04 02:02:50;;;;;;;0.00;0.00;;;21.60;98.00;;;;;;4929765;29;20123;-73
2022/06/04 02:05:27;;;;;;;0.00;0.00;;;21.60;97.90;;;;;;4922093;29;20024;-73
2022/06/04 02:07:55;;;;;;;0.00;0.00;;;21.60;97.80;;;;;;4923290;29;20071;-72
2022/06/04 02:10:35;;;;;;;0.00;0.00;;;21.50;97.90;;;;;;4919975;29;20023;-75
2022/06/04 02:13:08;;;;;;;0.00;0.00;;;21.50;97.90;;;;;;4931198;29;20016;-72
2022/06/04 02:15:46;;;;;;;0.00;0.00;;;21.40;98.00;;;;;;4908090;29;20031;-71
2022/06/04 02:18:13;;;;;;;0.00;0.00;;;21.40;98.00;;;;;;4909775;29;20028;-71
2022/06/04 02:20:38;;;;;;;0.00;0.00;;;21.40;98.40;;;;;;4928425;29;20032;-71
2022/06/04 02:23:04;;;;;;;0.00;0.00;;;21.40;98.50;;;;;;4904127;29;20020;-71
2022/06/04 02:25:31;;;;;;;0.00;0.00;;;21.40;98.70;;;;;;4921225;29;20223;-71
2022/06/04 02:27:58;;;;;;;0.00;0.00;;;21.40;98.50;;;;;;4917354;29;20319;-72
2022/06/04 02:30:37;;;;;;;0.00;0.00;;;21.30;98.70;;;;;;4928005;29;20024;-72
2022/06/04 02:33:17;;;;;;;0.00;0.00;;;21.30;98.80;;;;;;4921437;29;20325;-73
2022/06/04 02:35:52;;;;;;;0.00;0.00;;;21.30;98.90;;;;;;4928515;29;20067;-70
2022/06/04 02:38:55;;;;;;;0.00;0.00;;;21.30;99.20;;;;;;4915204;29;20337;-71
2022/06/04 02:41:29;;;;;;;0.00;0.00;;;21.30;99.20;;;;;;4880905;29;20222;-72
2022/06/04 02:43:58;;;;;;;0.00;0.00;;;21.30;99.10;;;;;;4911208;29;20087;-73
2022/06/04 02:46:33;;;;;;;0.00;0.00;;;21.20;99.20;;;;;;4905294;29;20051;-71
2022/06/04 02:49:09;;;;;;;0.00;0.00;;;21.30;99.30;;;;;;4930075;29;20268;-71
2022/06/04 02:51:42;;;;;;;0.00;0.00;;;21.20;99.10;;;;;;4904903;29;20031;-74
2022/06/04 02:54:25;;;;;;;0.00;0.00;;;21.20;99.40;;;;;;4925006;29;20087;-71
2022/06/04 02:56:53;;;;;;;0.00;0.00;;;21.20;99.50;;;;;;4914644;29;20027;-71
2022/06/04 02:59:20;;;;;;;;;;;21.20;99.60;;;;;;4925734;29;20051;-71
2022/06/04 03:01:50;;;;;;;0.00;0.00;;;21.20;99.40;;;;;;4934433;29;19918;-70
2022/06/04 03:04:16;;;;;;;0.00;0.00;;;21.20;99.50;;;;;;4926096;29;20132;-71
2022/06/04 03:06:42;;;;;;;0.00;0.00;;;21.20;99.40;;;;;;4931027;29;20311;-71
2022/06/04 03:09:11;;;;;;;0.00;0.00;;;21.20;99.40;;;;;;4920026;29;20024;-73
2022/06/04 03:11:43;;;;;;;0.00;0.00;;;21.20;99.40;;;;;;4925515;29;20032;-71
2022/06/04 03:14:10;;;;;;;0.00;0.00;;;21.20;99.50;;;;;;4915888;29;20016;-72
2022/06/04 03:16:38;;;;;;;0.00;0.00;;;21.20;99.80;;;;;;4905854;29;20077;-72
2022/06/04 03:19:05;;;;;;;;;;;21.20;99.90;;;;;;4919442;29;20036;-71
2022/06/04 03:21:31;;;;;;;0.00;0.00;;;21.20;99.90;;;;;;4913483;29;19965;-71
2022/06/04 03:23:56;;;;;;;0.00;0.00;;;21.20;99.90;;;;;;4920263;29;20077;-74
2022/06/04 03:26:22;;;;;;;0.00;0.00;;;21.20;99.90;;;;;;4927936;29;20092;-72
2022/06/04 03:28:48;;;;;;;0.00;0.00;;;21.10;99.90;;;;;;4931173;29;20072;-75
2022/06/04 03:31:13;;;;;;;0.00;0.00;;;21.10;99.90;;;;;;4922004;29;20038;-72
2022/06/04 03:33:39;;;;;;;0.00;0.00;;;21.10;99.90;;;;;;4907758;29;20215;-72
2022/06/04 03:36:08;;;;;;;0.00;0.00;;;21.10;99.90;;;;;;4927124;29;20273;-71
2022/06/04 03:38:33;;;;;;;0.00;0.00;;;21.10;99.90;;;;;;4929906;29;20016;-73
2022/06/04 03:40:59;;;;;;;0.00;0.00;;;21.10;99.90;;;;;;4912112;29;20038;-72
2022/06/04 03:43:24;;;;;;;0.00;0.00;;;21.10;99.90;;;;;;4918725;29;20074;-72
2022/06/04 03:45:50;;;;;;;0.00;0.00;;;21.10;99.90;;;;;;4910159;29;20031;-71
2022/06/04 03:48:16;;;;;;;0.00;0.00;;;21.10;99.90;;;;;;4927028;29;20072;-72
2022/06/04 03:50:41;;;;;;;0.00;0.00;;;21.00;99.90;;;;;;4928219;29;20027;-71
2022/06/04 03:53:07;;;;;;;0.00;0.00;;;21.00;99.90;;;;;;4917744;29;20327;-76
2022/06/04 03:55:33;;;;;;;0.00;0.00;;;21.10;99.90;;;;;;4902713;29;20039;-71
2022/06/04 03:57:59;;;;;;;0.00;0.00;;;21.10;99.90;;;;;;4920820;29;20024;-71
2022/06/04 04:00:34;;;;;;;0.00;0.00;;;21.10;99.90;;;;;;4906783;29;20135;-74
2022/06/04 04:03:06;;;;;;;0.00;0.00;;;21.00;99.90;;;;;;4920532;29;20064;-71
2022/06/04 04:05:35;;;;;;;0.00;0.00;;;21.00;99.90;;;;;;4919125;29;20027;-72
2022/06/04 04:08:05;;;;;;;0.00;0.00;;;21.10;99.90;;;;;;4909489;29;20091;-75
2022/06/04 04:10:32;;;;;;;0.00;0.00;;;21.00;99.90;;;;;;4936594;29;20019;-71
2022/06/04 04:12:58;;;;;;;0.00;0.00;;;21.10;99.90;;;;;;4916703;29;20088;-72
2022/06/04 04:15:24;;;;;;;0.00;0.00;;;21.00;99.90;;;;;;4919742;29;20245;-71
2022/06/04 04:17:51;;;;;;;0.00;0.00;;;21.10;99.90;;;;;;4926694;29;20047;-72
2022/06/04 04:20:20;;;;;;;0.00;0.00;;;21.10;99.90;;;;;;4932750;29;20238;-71
2022/06/04 04:22:46;;;;;;;0.00;0.00;;;21.10;99.90;;;;;;4921568;29;20031;-71
2022/06/04 04:25:14;;;;;;;0.00;0.00;;;21.10;99.90;;;;;;4921737;29;20091;-71
2022/06/04 04:27:40;;;;;;;0.00;0.00;;;21.10;99.90;;;;;;4923833;29;20036;-71
2022/06/04 04:30:09;;;;;;;0.00;0.00;;;21.20;99.90;;;;;;4907958;29;20035;-72
2022/06/04 04:32:35;;;;;;;0.00;0.00;;;21.20;99.90;;;;;;4926621;29;20016;-74
2022/06/04 04:35:03;;;;;;;0.00;0.00;;;21.20;99.90;;;;;;4918874;29;20111;-72
2022/06/04 04:37:29;;;;;;;0.00;0.00;;;21.20;99.90;;;;;;4924531;29;20030;-72
2022/06/04 04:39:55;;;;;;;0.00;0.00;;;21.20;99.90;;;;;;4911481;29;20024;-72
2022/06/04 04:42:20;;;;;;;0.00;0.00;;;21.30;99.90;;;;;;4935067;29;20083;-72
2022/06/04 04:44:46;;;;;;;0.00;0.00;;;21.30;99.90;;;;;;4918152;29;20062;-72
2022/06/04 04:47:11;;;;;;;0.00;0.00;;;21.30;99.90;;;;;;4912570;29;20023;-73
2022/06/04 04:49:37;;;;;;;0.00;0.00;;;21.30;99.90;;;;;;4930651;29;20028;-76
2022/06/04 04:52:04;;;;;;;0.00;0.00;;;21.30;99.90;;;;;;4924180;29;20031;-73
2022/06/04 04:54:30;;;;;;;0.00;0.00;;;21.30;99.90;;;;;;4908154;29;20039;-73
2022/06/04 04:56:55;;;;;;;0.00;0.00;;;21.40;99.90;;;;;;4920829;29;20036;-72
2022/06/04 04:59:21;;;;;;;0.00;0.00;;;21.50;99.90;;;;;;4929367;29;20019;-71
2022/06/04 05:01:47;;;;;;;0.00;0.00;;;21.50;99.90;;;;;;4917832;29;20028;-70
2022/06/04 05:04:12;;;;;;;0.00;0.00;;;21.50;99.90;;;;;;4923340;29;20067;-71
2022/06/04 05:06:38;;;;;;;0.00;0.00;;;21.50;99.70;;;;;;4926510;29;20429;-71
2022/06/04 05:09:04;;;;;;;0.00;0.00;;;21.50;99.80;;;;;;4925536;29;20258;-71
2022/06/04 05:11:32;;;;;;;0.00;0.00;;;21.60;99.80;;;;;;4945703;29;20046;-72
2022/06/04 05:13:59;;;;;;;0.00;0.00;;;21.60;99.40;;;;;;4920615;29;20024;-72
2022/06/04 05:16:32;;;;;;;0.00;0.00;;;21.70;99.20;;;;;;4937716;29;20027;-75
2022/06/04 05:18:58;;;;;;;0.00;0.00;;;21.80;99.10;;;;;;4929756;29;20027;-72
2022/06/04 05:21:34;;;;;;;0.00;0.00;;;21.90;99.00;;;;;;4928562;29;20027;-74
2022/06/04 05:24:00;;;;;;;0.00;0.00;;;22.00;98.60;;;;;;4950140;29;20024;-72
2022/06/04 05:26:25;;;;;;;0.00;0.00;;;22.10;98.50;;;;;;4951110;29;20111;-72
2022/06/04 05:28:51;;;;;;;0.00;0.00;;;22.10;98.20;;;;;;4939873;29;20072;-74
2022/06/04 05:31:18;;;;;;;0.00;0.00;;;22.20;97.90;;;;;;4946086;29;20031;-77
2022/06/04 05:33:43;;;;;;;0.00;0.00;;;22.20;97.70;;;;;;4935207;29;20042;-72
2022/06/04 05:36:09;;;;;;;0.00;0.00;;;22.20;97.80;;;;;;4939134;29;20431;-74
2022/06/04 05:38:36;;;;;;;0.00;0.00;;;22.20;97.80;;;;;;4950544;29;20369;-72
2022/06/04 05:41:05;;;;;;;0.00;0.00;;;22.10;97.90;;;;;;4926860;29;20030;-72
2022/06/04 05:43:31;;;;;;;0.00;0.00;;;22.10;97.70;;;;;;4942652;29;20023;-74
2022/06/04 05:46:02;;;;;;;0.00;0.00;;;22.10;97.80;;;;;;4943378;29;20435;-71
2022/06/04 05:48:28;;;;;;;0.00;0.00;;;22.10;97.70;;;;;;4928571;29;20263;-74
2022/06/04 05:50:55;;;;;;;0.00;0.00;;;22.20;98.00;;;;;;4939818;29;20027;-72
2022/06/04 05:53:21;;;;;;;0.00;0.00;;;22.20;97.90;;;;;;4929268;29;20278;-72
2022/06/04 05:55:48;;;;;;;0.00;0.00;;;22.20;97.80;;;;;;4953382;29;20035;-75
2022/06/04 05:58:13;;;;;;;0.00;0.00;;;22.30;97.60;;;;;;4942310;29;20206;-73
2022/06/04 06:00:40;;;;;;;0.00;0.00;;;22.30;97.60;;;;;;4943102;29;20027;-71
2022/06/04 06:03:05;;;;;;;0.00;0.00;;;22.40;97.60;;;;;;4945834;29;20323;-71
2022/06/04 06:05:32;;;;;;;0.00;0.00;;;22.50;97.40;;;;;;4933038;29;20028;-71
2022/06/04 06:07:58;;;;;;;0.00;0.00;;;22.70;97.00;;;;;;4925114;29;20363;-74
2022/06/04 06:10:24;;;;;;;0.00;0.00;;;22.80;97.00;;;;;;4920064;29;20020;-72
2022/06/04 06:12:49;;;;;;;0.00;0.00;;;23.00;96.90;;;;;;4933354;29;20033;-71
2022/06/04 06:15:15;;;;;;;0.00;0.00;;;23.30;97.20;;;;;;4921964;29;20032;-71
2022/06/04 06:17:41;;;;;;;0.00;0.00;;;23.50;96.20;;;;;;4924939;29;20035;-73
2022/06/04 06:20:08;;;;;;;0.00;0.00;;;23.80;96.20;;;;;;4938306;29;20028;-71
2022/06/04 06:22:35;;;;;;;0.00;0.00;;;24.00;95.90;;;;;;4918826;29;20032;-71
2022/06/04 06:25:05;;;;;;;0.00;0.00;;;24.20;95.30;;;;;;4928534;29;20335;-70
2022/06/04 06:27:31;;;;;;;0.00;0.00;;;24.30;94.50;;;;;;4936048;29;20028;-72
2022/06/04 06:29:57;;;;;;;0.00;0.00;;;24.50;94.50;;;;;;4919306;29;20039;-75
2022/06/04 06:32:26;;;;;;;0.00;0.00;;;24.70;94.30;;;;;;4936144;29;20023;-71
2022/06/04 06:34:52;;;;;;;0.00;0.00;;;24.90;93.50;;;;;;4920287;29;20379;-77
2022/06/04 06:37:18;;;;;;;0.00;0.00;;;25.20;93.50;;;;;;4935781;29;20027;-73
2022/06/04 06:39:43;;;;;;;0.00;0.00;;;25.40;93.10;;;;;;4921906;29;20099;-72
2022/06/04 06:42:09;;;;;;;0.00;0.00;;;25.60;92.90;;;;;;4921052;29;20020;-72
2022/06/04 06:44:35;;;;;;;0.00;0.00;;;25.80;93.00;;;;;;4931095;29;20028;-73
2022/06/04 06:47:01;;;;;;;0.00;0.00;;;25.90;92.00;;;;;;4926647;29;20315;-73
2022/06/04 06:49:29;;;;;;;0.00;0.00;;;25.90;91.70;;;;;;4929175;29;20035;-72
2022/06/04 06:52:00;;;;;;;0.00;0.00;;;26.00;91.90;;;;;;4915587;29;20064;-73
2022/06/04 06:54:31;;;;;;;0.00;0.00;;;26.00;91.80;;;;;;4912191;29;20040;-72
2022/06/04 06:56:57;;;;;;;0.00;0.00;;;26.20;91.50;;;;;;4923785;29;20036;-72
2022/06/04 06:59:27;;;;;;;0.00;0.00;;;26.30;92.00;;;;;;4935176;29;20028;-72
2022/06/04 07:01:54;;;;;;;0.00;0.00;;;26.60;92.20;;;;;;4912407;29;20092;-77
2022/06/04 07:04:23;;;;;;;0.00;0.00;;;26.60;91.40;;;;;;4922558;29;20167;-73
2022/06/04 07:06:58;;;;;;;0.00;0.00;;;26.70;91.00;;;;;;4921285;29;20024;-74
2022/06/04 07:09:30;;;;;;;0.00;0.00;;;26.50;90.90;;;;;;4928232;29;20032;-73
2022/06/04 07:11:56;;;;;;;0.00;0.00;;;26.40;91.30;;;;;;4926270;29;20218;-73
2022/06/04 07:14:23;;;;;;;0.00;0.00;;;26.20;90.80;;;;;;4929090;29;20100;-74
2022/06/04 07:16:49;;;;;;;0.00;0.00;;;26.10;91.30;;;;;;4930239;29;20024;-73
2022/06/04 07:19:17;;;;;;;0.00;0.00;;;26.00;91.00;;;;;;4927229;29;20038;-73
2022/06/04 07:21:43;;;;;;;0.00;0.00;;;26.00;91.40;;;;;;4932338;29;20091;-74
2022/06/04 07:24:10;;;;;;;0.00;0.00;;;25.80;91.80;;;;;;4905533;29;20063;-72
2022/06/04 07:26:37;;;;;;;0.00;0.00;;;25.60;91.70;;;;;;4925885;29;20193;-72
2022/06/04 07:29:04;;;;;;;0.00;0.00;;;25.40;91.80;;;;;;4919904;29;20042;-71
2022/06/04 07:31:31;;;;;;;0.00;0.00;;;25.20;91.90;;;;;;4926139;29;20035;-71
2022/06/04 07:33:58;;;;;;;0.00;0.00;;;24.90;92.50;;;;;;4929813;29;20111;-71
2022/06/04 07:36:44;;;;;;;0.00;0.00;;;24.80;93.10;;;;;;4922037;29;20343;-71
2022/06/04 07:39:11;;;;;;;0.00;0.00;;;24.60;92.20;;;;;;4926546;29;20057;-72
2022/06/04 07:41:40;;;;;;;0.00;0.00;;;24.50;92.90;;;;;;4908517;29;20498;-75
2022/06/04 07:44:07;;;;;;;0.00;0.00;;;24.50;93.60;;;;;;4908035;29;20024;-72
2022/06/04 07:46:34;;;;;;;0.00;0.00;;;24.50;93.40;;;;;;4933578;29;20035;-71
2022/06/04 07:49:03;;;;;;;0.00;0.00;;;24.40;93.50;;;;;;4932118;29;20122;-72
2022/06/04 07:51:30;;;;;;;0.00;0.00;;;24.40;93.70;;;;;;4904502;29;20020;-73
2022/06/04 07:53:56;;;;;;;0.00;0.00;;;24.50;93.80;;;;;;4922304;29;20023;-73
2022/06/04 07:56:23;;;;;;;0.00;0.00;;;24.50;94.00;;;;;;4920722;29;20036;-72
2022/06/04 07:58:49;;;;;;;0.00;0.00;;;24.70;93.40;;;;;;4929680;29;20046;-72
2022/06/04 08:01:17;;;;;;;0.00;0.00;;;24.80;93.80;;;;;;4908606;29;20067;-72
2022/06/04 08:03:43;;;;;;;;;;;25.00;93.50;;;;;;4922014;29;20319;-71
2022/06/04 08:06:10;;;;;;;0.00;0.00;;;25.30;93.20;;;;;;4944128;29;20126;-72
2022/06/04 08:08:39;;;;;;;0.00;0.00;;;25.80;93.20;;;;;;4921871;29;20047;-72
2022/06/04 08:11:30;;;;;;;0.00;0.00;;;26.40;92.80;;;;;;4952102;29;20267;-72
2022/06/04 08:13:52;;;;;;;0.00;0.00;;;27.30;93.70;;;;;;4939282;29;20051;-72
2022/06/04 08:16:18;;;;;;;0.00;0.00;;;28.20;89.70;;;;;;4930022;29;20058;-76
2022/06/04 08:18:45;;;;;;;0.00;0.00;;;28.50;88.30;;;;;;4924129;29;20207;-72
2022/06/04 08:21:10;;;;;;;0.00;0.00;;;29.00;88.90;;;;;;4949559;29;20043;-73
2022/06/04 08:23:39;;;;;;;0.00;0.00;;;29.70;88.70;;;;;;4937661;29;20019;-71
2022/06/04 08:26:08;;;;;;;0.00;0.00;;;30.00;84.50;;;;;;4941899;29;20027;-73
2022/06/04 08:28:35;;;;;;;0.00;0.00;;;30.40;82.20;;;;;;4937948;29;20090;-73
2022/06/04 08:31:04;;;;;;;0.00;0.00;;;31.20;83.40;;;;;;4944703;28;20051;-74
2022/06/04 08:33:30;;;;;;;0.00;0.00;;;31.90;81.70;;;;;;4932448;29;20075;-73
2022/06/04 08:35:56;;;;;;;0.00;0.00;;;32.70;79.10;;;;;;4950235;29;20043;-74
2022/06/04 08:38:23;;;;;;;0.00;0.00;;;33.10;77.00;;;;;;4939419;29;20027;-74
2022/06/04 08:40:58;;;;;;;0.00;0.00;;;34.00;77.30;;;;;;4947344;29;20023;-73
2022/06/04 08:43:39;;;;;;;0.00;0.00;;;34.90;76.60;;;;;;4932507;29;20027;-73
2022/06/04 08:46:14;;;;;;;0.00;0.00;;;35.90;72.90;;;;;;4926272;29;20318;-74
2022/06/04 08:48:42;;;;;;;0.00;0.00;;;35.70;68.30;;;;;;4923326;29;20024;-74
2022/06/04 08:51:23;;;;;;;0.00;0.00;;;35.90;65.90;;;;;;4945624;29;20283;-74
2022/06/04 08:53:52;;;;;;;0.00;0.00;;;36.10;66.80;;;;;;4941321;29;20168;-74
2022/06/04 08:59:38;;;;;;;0.00;0.00;;;35.40;66.80;;;;;;4951088;29;20034;-74
2022/06/04 09:02:09;;;;;;;0.00;0.00;;;35.70;67.10;;;;;;4943417;29;20289;-73
2022/06/04 09:04:47;;;;;;;0.00;0.00;;;35.40;66.00;;;;;;4930292;29;20063;-74
2022/06/04 09:07:22;;;;;;;0.00;0.00;;;35.90;65.70;;;;;;4935804;29;20028;-73
2022/06/04 09:10:18;;;;;;;0.00;0.00;;;35.60;61.60;;;;;;4928566;29;20118;-75
2022/06/04 09:13:19;;;;;;;0.00;0.00;;;35.30;61.30;;;;;;4940223;29;20023;-73
2022/06/04 09:15:51;;;;;;;0.00;0.00;;;35.30;62.50;;;;;;4867438;29;20048;-72
2022/06/04 09:18:20;;;;;;;0.00;0.00;;;35.40;62.80;;;;;;4882871;29;20041;-77
2022/06/04 09:20:51;;;;;;;0.00;0.00;;;35.30;62.50;;;;;;4902110;29;20037;-76
2022/06/04 09:23:34;;;;;;;0.00;0.00;;;36.20;62.00;;;;;;4885751;29;20032;-75
2022/06/04 09:26:12;;;;;;;0.00;0.00;;;36.50;61.50;;;;;;4901557;29;20374;-73
2022/06/04 09:28:50;;;;;;;0.00;0.00;;;36.70;58.10;;;;;;4901487;29;20189;-73
2022/06/04 09:31:36;;;;;;;0.00;0.00;;;36.30;58.90;;;;;;4901326;29;20080;-72
2022/06/04 09:34:23;;;;;;;0.00;0.00;;;37.10;59.60;;;;;;4901016;29;20343;-77
2022/06/04 09:36:49;;;;;;;0.00;0.00;;;36.60;57.70;;;;;;4901326;29;20224;-72
2022/06/04 09:39:29;;;;;;;0.00;0.00;;;36.10;57.00;;;;;;4901239;29;20033;-72
2022/06/04 09:42:01;;;;;;;0.00;0.00;;;36.00;58.30;;;;;;4897994;29;20036;-72
2022/06/04 09:44:28;;;;;;;0.00;0.00;;;36.30;57.70;;;;;;4895741;29;20032;-74
2022/06/04 09:47:06;;;;;;;0.00;0.00;;;37.40;58.60;;;;;;4881047;29;20085;-73
2022/06/04 09:49:49;;;;;;;0.00;0.00;;;38.60;59.00;;;;;;4901126;29;20056;-73
2022/06/04 09:52:38;;;;;;;0.00;0.00;;;39.80;57.50;;;;;;4901321;29;20032;-73
2022/06/04 09:55:16;;;;;;;0.00;0.00;;;40.90;56.90;;;;;;4933438;29;20085;-73
2022/06/04 09:57:43;;;;;;;0.00;0.00;;;41.80;52.80;;;;;;4949967;29;20329;-74
2022/06/04 10:00:21;;;;;;;0.00;0.00;;;42.30;51.10;;;;;;4948016;29;20012;-77
2022/06/04 10:03:00;;;;;;;0.00;0.00;;;41.60;48.70;;;;;;4936339;29;20098;-75
2022/06/04 10:05:30;;;;;;;0.00;0.00;;;41.10;49.70;;;;;;4930634;29;20290;-72
2022/06/04 10:07:57;;;;;;;0.00;0.00;;;40.90;50.90;;;;;;4936636;29;20237;-72
2022/06/04 10:10:38;;;;;;;0.00;0.00;;;40.30;49.70;;;;;;4941780;29;20255;-73
2022/06/04 10:16:20;;;;;;;0.00;0.00;;;41.00;48.70;;;;;;4949389;29;20037;-72
2022/06/04 10:19:00;;;;;;;0.00;0.00;;;40.70;48.30;;;;;;4951569;29;20180;-73
2022/06/04 10:21:36;;;;;;;0.00;0.00;;;40.70;49.00;;;;;;4928047;29;20058;-73
2022/06/04 10:24:20;;;;;;;0.00;0.00;;;40.80;50.30;;;;;;4938708;29;20020;-74
2022/06/04 10:27:22;;;;;;;0.00;0.00;;;40.70;47.90;;;;;;4949158;29;20138;-73
2022/06/04 10:30:04;;;;;;;0.00;0.00;;;40.70;47.40;;;;;;4929359;29;20033;-75
2022/06/04 10:32:50;;;;;;;0.00;0.00;;;40.10;48.90;;;;;;4947373;29;20027;-73
2022/06/04 10:35:25;;;;;;;0.00;0.00;;;41.00;47.90;;;;;;4950336;29;20035;-73
2022/06/04 10:38:09;;;;;;;0.00;0.00;;;40.80;46.00;;;;;;4931474;29;20042;-72
2022/06/04 10:40:58;;;;;;;0.00;0.00;;;40.10;46.30;;;;;;4927974;29;20155;-74
2022/06/04 10:43:44;;;;;;;0.00;0.00;;;40.10;48.20;;;;;;4946544;29;20035;-73
2022/06/04 10:46:21;;;;;;;0.00;0.00;;;41.60;46.50;;;;;;4941837;28;20063;-73
2022/06/04 10:49:17;;;;;;;0.00;0.00;;;41.00;45.50;;;;;;4945091;29;20075;-79
2022/06/04 10:52:21;;;;;;;0.00;0.00;;;40.90;46.80;;;;;;4942382;29;20090;-75
2022/06/04 10:55:06;;;;;;;0.00;0.00;;;42.20;48.90;;;;;;4941143;29;20087;-80
2022/06/04 10:58:02;;;;;;;0.00;0.00;;;42.70;45.40;;;;;;4930520;29;20346;-73
2022/06/04 11:00:48;;;;;;;0.00;0.00;;;43.40;46.40;;;;;;4941769;29;20096;-73
2022/06/04 11:03:21;;;;;;;0.00;0.00;;;42.90;43.40;;;;;;4945884;28;20119;-73
2022/06/04 11:06:04;;;;;;;0.00;0.00;;;42.20;44.40;;;;;;4926055;29;20051;-79
2022/06/04 11:08:35;;;;;;;0.00;0.00;;;42.80;43.30;;;;;;4907583;29;20024;-72
2022/06/04 11:11:13;;;;;;;0.00;0.00;;;42.70;44.20;;;;;;4911392;29;20038;-72
2022/06/04 11:13:43;;;;;;;0.00;0.00;;;42.80;44.30;;;;;;4915723;29;20024;-72
2022/06/04 11:16:13;;;;;;;0.00;0.00;;;42.30;43.80;;;;;;4930483;29;20365;-72
2022/06/04 11:18:56;;;;;;;0.00;0.00;;;42.50;44.10;;;;;;4913136;29;20092;-73
2022/06/04 11:21:39;;;;;;;0.00;0.00;;;42.50;43.90;;;;;;4918833;29;20032;-73
2022/06/04 11:24:14;;;;;;;0.00;0.00;;;41.50;43.10;;;;;;4931633;29;20024;-76
2022/06/04 11:26:55;;;;;;;0.00;0.00;;;40.10;45.30;;;;;;4931496;29;20059;-73
2022/06/04 11:29:21;;;;;;;0.00;0.00;;;39.10;46.90;;;;;;4924077;29;20075;-73
2022/06/04 11:32:05;;;;;;;0.00;0.00;;;38.70;47.30;;;;;;4912229;29;20038;-80
2022/06/04 11:34:40;;;;;;;0.00;0.00;;;38.20;46.80;;;;;;4908903;29;20866;-71
2022/06/04 11:37:11;;;;;;;0.00;0.00;;;36.90;47.90;;;;;;4919446;29;20041;-72
2022/06/04 11:40:04;;;;;;;0.00;0.00;;;36.20;50.10;;;;;;4926129;29;20861;-77
2022/06/04 11:42:43;;;;;;;0.00;0.00;;;35.40;50.20;;;;;;4925842;29;20033;-74
2022/06/04 11:45:40;;;;;;;0.00;0.00;;;34.70;51.50;;;;;;4932966;29;20019;-72
2022/06/04 11:48:09;;;;;;;0.00;0.00;;;34.00;52.40;;;;;;4874179;29;20207;-72
2022/06/04 11:51:10;;;;;;;0.00;0.00;;;33.60;54.10;;;;;;4915839;29;20031;-71
2022/06/04 11:53:58;;;;;;;0.00;0.00;;;33.20;54.20;;;;;;4919154;29;20032;-75
2022/06/04 11:56:51;;;;;;;0.00;0.00;;;32.80;54.10;;;;;;4924385;29;20036;-71
2022/06/04 11:59:38;;;;;;;0.00;0.00;;;32.60;56.40;;;;;;4911885;29;20094;-72
2022/06/04 12:02:30;;;;;;;0.00;0.00;;;32.40;56.50;;;;;;4929434;29;20019;-73
2022/06/04 12:05:01;;;;;;;0.00;0.00;;;32.00;56.60;;;;;;4918592;29;20378;-71
2022/06/04 12:07:47;;;;;;;0.00;0.00;;;31.80;57.60;;;;;;4947978;29;20098;-78
2022/06/04 12:10:50;;;;;;;0.00;0.00;;;31.60;57.70;;;;;;4949411;29;20024;-72
2022/06/04 12:13:45;;;;;;;0.00;0.00;;;31.40;57.60;;;;;;4955405;29;20020;-72
2022/06/04 12:16:33;;;;;;;0.00;0.00;;;31.20;58.50;;;;;;4919556;29;20043;-72
2022/06/04 12:25:09;;;;;;;0.00;0.00;;;30.90;59.20;;;;;;4947571;29;20075;-72
2022/06/04 12:27:37;;;;;;;0.00;0.00;;;30.80;58.60;;;;;;4949815;29;20053;-72
2022/06/04 12:30:15;;;;;;;0.00;0.00;;;30.70;60.00;;;;;;4930227;29;20080;-70
2022/06/04 12:32:42;;;;;;;0.00;0.00;;;30.70;59.20;;;;;;4929441;29;20046;-72
2022/06/04 12:35:15;;;;;;;0.00;0.00;;;30.70;61.00;;;;;;4938170;29;20026;-72
2022/06/04 12:37:44;;;;;;;0.00;0.00;;;30.80;60.50;;;;;;4926674;29;20039;-72
2022/06/04 12:40:32;;;;;;;0.00;0.00;;;30.80;59.70;;;;;;4945629;29;20033;-71
2022/06/04 12:43:22;;;;;;;0.00;0.00;;;30.70;59.30;;;;;;4948343;29;20191;-72
2022/06/04 12:45:53;;;;;;;0.00;0.00;;;30.70;59.90;;;;;;4950907;29;20038;-72
2022/06/04 12:48:36;;;;;;;0.00;0.00;;;30.70;59.50;;;;;;4923190;29;20031;-71
2022/06/04 12:51:11;;;;;;;0.00;0.00;;;30.70;59.90;;;;;;4952457;29;20063;-72
2022/06/04 12:53:55;;;;;;;0.00;0.00;;;30.70;59.40;;;;;;4924325;29;20262;-78
2022/06/04 12:56:28;;;;;;;0.00;0.00;;;30.70;60.30;;;;;;4942759;29;20087;-72
2022/06/04 12:58:59;;;;;;;0.00;0.00;;;30.70;59.30;;;;;;4946940;29;20027;-72
2022/06/04 13:01:32;;;;;;;0.00;0.00;;;30.60;59.50;;;;;;4944444;29;20320;-71
2022/06/04 13:04:09;;;;;;;0.00;0.00;;;30.60;61.00;;;;;;4935382;29;20249;-75
2022/06/04 13:06:49;;;;;;;0.00;0.00;;;30.70;61.00;;;;;;4946198;29;20015;-75
2022/06/04 13:09:22;;;;;;;0.00;0.00;;;30.80;61.30;;;;;;4940655;29;20103;-74
2022/06/04 13:11:59;;;;;;;0.00;0.00;;;30.80;61.10;;;;;;4932857;29;20020;-73
2022/06/04 13:14:38;;;;;;;0.00;0.00;;;30.80;60.80;;;;;;4930176;29;20026;-72
2022/06/04 13:17:31;;;;;;;0.00;0.00;;;30.80;60.30;;;;;;4945059;29;20016;-72
2022/06/04 13:20:26;;;;;;;0.00;0.00;;;30.70;57.60;;;;;;4923486;29;20019;-75
2022/06/04 13:23:07;;;;;;;0.00;0.00;;;30.60;57.70;;;;;;4925288;29;20039;-71
2022/06/04 13:25:41;;;;;;;0.00;0.00;;;30.40;57.60;;;;;;4940386;29;20026;-73
2022/06/04 13:28:32;;;;;;;0.00;0.00;;;30.30;59.40;;;;;;4947052;29;20220;-78
2022/06/04 13:31:00;;;;;;;0.00;0.00;;;30.20;60.70;;;;;;4929803;29;20034;-72
2022/06/04 13:33:26;;;;;;;0.00;0.00;;;30.20;62.20;;;;;;4933848;29;20096;-72
2022/06/04 13:35:57;;;;;;;0.00;0.00;;;30.10;61.40;;;;;;4938383;29;20311;-71